createdAt,value
2019-03-12T00:00:39.989Z,95.30
2019-03-12T00:03:09.424Z,95.20
2019-03-12T00:05:38.736Z,95.20
2019-03-12T00:08:08.116Z,95.20
2019-03-12T00:10:39.192Z,95.10
2019-03-12T00:13:08.437Z,95.00
2019-03-12T00:15:37.694Z,94.70
2019-03-12T00:18:06.987Z,94.90
2019-03-12T00:20:36.316Z,94.60
2019-03-12T00:23:05.589Z,94.70
2019-03-12T00:25:34.776Z,94.50
2019-03-12T00:28:05.142Z,94.60
2019-03-12T00:30:34.740Z,94.10
2019-03-12T00:33:04.234Z,94.10
2019-03-12T00:35:33.776Z,94.20
2019-03-12T00:38:03.444Z,94.00
2019-03-12T00:40:32.988Z,93.90
2019-03-12T00:43:02.392Z,93.80
2019-03-12T00:45:31.809Z,93.60
2019-03-12T00:48:01.735Z,93.20
2019-03-12T00:50:31.313Z,93.40
2019-03-12T00:53:00.679Z,93.10
2019-03-12T00:55:31.661Z,92.90
2019-03-12T00:58:01.088Z,92.60
2019-03-12T01:00:30.639Z,92.50
2019-03-12T01:03:00.345Z,92.10
2019-03-12T01:05:29.745Z,92.40
2019-03-12T01:07:59.215Z,92.10
2019-03-12T01:10:28.765Z,92.40
2019-03-12T01:12:58.292Z,92.20
2019-03-12T01:15:27.679Z,92.50
2019-03-12T01:17:57.281Z,92.60
2019-03-12T01:20:26.890Z,92.50
2019-03-12T01:22:56.384Z,92.80
2019-03-12T01:25:25.859Z,92.40
2019-03-12T01:27:55.655Z,92.20
2019-03-12T01:30:25.194Z,92.10
2019-03-12T01:32:54.930Z,92.10
2019-03-12T01:35:24.394Z,92.10
2019-03-12T01:37:54.005Z,92.20
2019-03-12T01:40:23.547Z,91.90
2019-03-12T01:42:53.648Z,91.90
2019-03-12T01:45:24.326Z,92.10
2019-03-12T01:47:53.740Z,92.00
2019-03-12T01:50:23.410Z,92.10
2019-03-12T01:52:53.018Z,92.20
2019-03-12T01:55:22.485Z,91.90
2019-03-12T01:57:51.879Z,92.20
2019-03-12T02:00:21.659Z,92.20
2019-03-12T02:02:51.419Z,92.40
2019-03-12T02:05:20.948Z,92.60
2019-03-12T02:07:50.517Z,92.50
2019-03-12T02:10:20.097Z,92.80
2019-03-12T02:12:49.609Z,93.00
2019-03-12T02:15:19.356Z,92.70
2019-03-12T02:17:48.881Z,92.90
2019-03-12T02:20:19.694Z,93.00
2019-03-12T02:22:49.242Z,93.30
2019-03-12T02:25:19.597Z,93.20
2019-03-12T02:27:49.264Z,93.30
2019-03-12T02:30:20.852Z,93.50
2019-03-12T02:32:50.416Z,93.30
2019-03-12T02:35:19.889Z,93.40
2019-03-12T02:37:49.356Z,93.30
2019-03-12T02:40:18.887Z,93.40
2019-03-12T02:42:48.484Z,93.90
2019-03-12T02:45:18.134Z,93.80
2019-03-12T02:47:47.683Z,93.80
2019-03-12T02:50:17.201Z,93.80
2019-03-12T02:52:46.804Z,93.80
2019-03-12T02:55:16.522Z,93.80
2019-03-12T02:57:46.102Z,94.00
2019-03-12T03:00:20.764Z,94.20
2019-03-12T03:02:50.209Z,94.20
2019-03-12T03:05:20.071Z,94.20
2019-03-12T03:07:51.617Z,94.40
2019-03-12T03:10:21.270Z,94.60
2019-03-12T03:12:51.115Z,94.60
2019-03-12T03:15:22.956Z,94.70
2019-03-12T03:17:53.535Z,94.60
2019-03-12T03:20:23.172Z,94.80
2019-03-12T03:22:52.650Z,95.00
2019-03-12T03:25:23.729Z,95.10
2019-03-12T03:27:53.272Z,95.40
2019-03-12T03:30:24.461Z,95.30
2019-03-12T03:32:54.077Z,95.30
2019-03-12T03:35:23.567Z,95.30
2019-03-12T03:37:53.106Z,95.50
2019-03-12T03:40:22.744Z,95.50
2019-03-12T03:42:52.343Z,95.50
2019-03-12T03:45:22.129Z,95.50
2019-03-12T03:47:51.937Z,95.50
2019-03-12T03:50:21.481Z,95.70
2019-03-12T03:52:51.116Z,95.90
2019-03-12T03:55:22.022Z,95.90
2019-03-12T03:57:52.573Z,96.00
2019-03-12T04:00:23.808Z,95.80
2019-03-12T04:02:55.019Z,96.00
2019-03-12T04:05:24.557Z,96.00
2019-03-12T04:07:54.091Z,96.10
2019-03-12T04:10:23.586Z,96.10
2019-03-12T04:12:53.168Z,96.00
2019-03-12T04:15:22.797Z,95.80
2019-03-12T04:17:52.220Z,95.90
2019-03-12T04:20:21.862Z,95.80
2019-03-12T04:22:51.314Z,95.70
2019-03-12T04:25:20.775Z,95.90
2019-03-12T04:27:50.200Z,95.90
2019-03-12T04:30:20.040Z,95.50
2019-03-12T04:32:49.381Z,95.70
2019-03-12T04:35:24.828Z,95.50
2019-03-12T04:37:54.441Z,95.40
2019-03-12T04:40:23.887Z,95.30
2019-03-12T04:42:53.612Z,95.40
2019-03-12T04:45:23.499Z,94.90
2019-03-12T04:47:52.900Z,95.30
2019-03-12T04:50:22.381Z,95.20
2019-03-12T04:52:51.809Z,95.10
2019-03-12T04:55:21.178Z,94.80
2019-03-12T04:57:51.702Z,94.90
2019-03-12T05:00:21.511Z,94.80
2019-03-12T05:02:50.994Z,94.70
2019-03-12T05:05:20.441Z,94.70
2019-03-12T05:07:50.094Z,94.60
2019-03-12T05:10:19.571Z,94.60
2019-03-12T05:12:49.084Z,94.40
2019-03-12T05:15:22.252Z,94.50
2019-03-12T05:17:54.803Z,95.00
2019-03-12T05:20:24.429Z,94.50
2019-03-12T05:22:53.865Z,94.10
2019-03-12T05:25:23.424Z,94.60
2019-03-12T05:27:52.934Z,94.00
2019-03-12T05:30:26.776Z,93.80
2019-03-12T05:32:56.211Z,94.20
2019-03-12T05:35:25.714Z,95.00
2019-03-12T05:37:56.133Z,95.10
2019-03-12T05:40:25.809Z,95.50
2019-03-12T05:42:55.345Z,95.30
2019-03-12T05:45:24.895Z,95.20
2019-03-12T05:47:54.336Z,95.30
2019-03-12T05:50:24.534Z,95.60
2019-03-12T05:53:05.880Z,95.40
2019-03-12T05:55:35.246Z,95.40
2019-03-12T05:58:04.782Z,95.20
2019-03-12T06:00:34.154Z,95.10
2019-03-12T06:03:03.788Z,94.90
2019-03-12T06:05:33.382Z,94.70
2019-03-12T06:08:02.874Z,94.80
2019-03-12T06:10:32.357Z,94.80
2019-03-12T06:13:03.332Z,94.80
2019-03-12T06:15:32.788Z,94.40
2019-03-12T06:18:02.157Z,94.20
2019-03-12T06:20:31.537Z,94.10
2019-03-12T06:23:01.170Z,94.10
2019-03-12T06:25:30.538Z,93.90
2019-03-12T06:28:01.570Z,93.70
2019-03-12T06:30:32.587Z,93.40
2019-03-12T06:33:15.730Z,93.30
2019-03-12T06:35:54.294Z,93.20
2019-03-12T06:38:41.195Z,92.80
2019-03-12T06:41:14.879Z,92.50
2019-03-12T06:43:46.918Z,92.40
2019-03-12T06:46:26.407Z,92.40
2019-03-12T06:48:57.425Z,92.20
2019-03-12T06:51:40.240Z,91.90
2019-03-12T06:54:26.555Z,91.70
2019-03-12T06:57:03.737Z,91.30
2019-03-12T06:59:53.096Z,91.00
2019-03-12T07:02:40.703Z,91.00
2019-03-12T07:05:21.259Z,90.10
2019-03-12T07:07:54.878Z,90.20
2019-03-12T07:10:44.437Z,89.60
2019-03-12T07:13:21.268Z,88.90
2019-03-12T07:15:52.286Z,88.80
2019-03-12T07:18:32.275Z,87.50
2019-03-12T07:21:03.312Z,87.70
2019-03-12T07:23:37.628Z,87.00
2019-03-12T07:26:14.763Z,86.30
2019-03-12T07:29:02.568Z,84.90
2019-03-12T07:31:35.347Z,84.90
2019-03-12T07:34:05.664Z,84.70
2019-03-12T07:36:37.800Z,84.40
2019-03-12T07:39:15.607Z,83.80
2019-03-12T07:41:55.554Z,84.60
2019-03-12T07:44:42.811Z,83.10
2019-03-12T07:47:13.828Z,82.20
2019-03-12T07:49:45.103Z,81.20
2019-03-12T07:52:19.133Z,81.40
2019-03-12T07:54:50.168Z,80.80
2019-03-12T07:57:21.440Z,80.30
2019-03-12T07:59:52.516Z,80.20
2019-03-12T08:02:39.789Z,79.90
2019-03-12T08:05:16.882Z,80.10
2019-03-12T08:07:58.158Z,80.20
2019-03-12T08:10:41.362Z,79.80
2019-03-12T08:13:17.647Z,79.20
2019-03-12T08:15:56.272Z,79.90
2019-03-12T08:18:27.253Z,79.40
2019-03-12T08:21:01.368Z,79.20
2019-03-12T08:23:38.428Z,78.30
2019-03-12T08:26:27.511Z,79.10
2019-03-12T08:29:04.389Z,78.50
2019-03-12T08:31:47.482Z,78.80
2019-03-12T08:34:18.474Z,77.60
2019-03-12T08:36:49.523Z,76.70
2019-03-12T08:39:38.324Z,76.30
2019-03-12T08:42:18.295Z,76.10
2019-03-12T08:44:49.422Z,76.10
2019-03-12T08:47:26.238Z,74.70
2019-03-12T08:50:12.570Z,75.10
2019-03-12T08:52:43.597Z,76.30
2019-03-12T08:55:14.592Z,74.60
2019-03-12T08:57:45.747Z,75.10
2019-03-12T09:00:32.079Z,75.50
2019-03-12T09:03:03.171Z,74.40
2019-03-12T09:05:34.228Z,71.70
2019-03-12T09:08:08.824Z,70.60
2019-03-12T09:10:45.699Z,71.30
2019-03-12T09:13:19.516Z,71.10
2019-03-12T09:15:56.391Z,69.80
2019-03-12T09:18:31.027Z,70.00
2019-03-12T09:21:02.144Z,71.80
2019-03-12T09:23:44.724Z,70.70
2019-03-12T09:26:34.230Z,71.10
2019-03-12T09:29:20.248Z,71.20
2019-03-12T09:31:59.924Z,70.40
2019-03-12T09:34:36.491Z,70.90
2019-03-12T09:37:17.530Z,69.80
2019-03-12T09:39:48.613Z,67.90
2019-03-12T09:42:28.430Z,67.30
2019-03-12T09:45:09.229Z,68.20
2019-03-12T09:47:40.303Z,68.10
2019-03-12T09:50:17.907Z,67.00
2019-03-12T09:52:57.896Z,65.40
2019-03-12T09:55:29.050Z,65.00
2019-03-12T09:58:18.195Z,67.70
2019-03-12T10:01:05.992Z,65.60
2019-03-12T10:03:40.006Z,67.40
2019-03-12T10:06:11.122Z,66.40
2019-03-12T10:08:48.458Z,65.10
2019-03-12T10:11:28.745Z,65.80
2019-03-12T10:13:59.875Z,65.60
2019-03-12T10:16:47.443Z,64.90
2019-03-12T10:19:18.514Z,63.00
2019-03-12T10:21:55.664Z,63.40
2019-03-12T10:24:28.741Z,64.50
2019-03-12T10:27:15.283Z,63.50
2019-03-12T10:29:47.722Z,64.40
2019-03-12T10:32:22.235Z,64.20
2019-03-12T10:35:09.006Z,62.40
2019-03-12T10:37:46.218Z,60.70
2019-03-12T10:40:20.686Z,61.20
2019-03-12T10:43:03.806Z,59.20
2019-03-12T10:45:40.880Z,60.90
2019-03-12T10:48:13.428Z,59.90
2019-03-12T10:50:42.930Z,60.20
2019-03-12T10:53:12.446Z,59.50
2019-03-12T10:55:41.979Z,61.80
2019-03-12T10:58:11.442Z,61.20
2019-03-12T11:00:41.635Z,60.90
2019-03-12T11:03:11.160Z,63.00
2019-03-12T11:05:45.921Z,61.70
2019-03-12T11:08:12.573Z,61.70
2019-03-12T11:10:41.917Z,63.30
2019-03-12T11:13:14.476Z,61.70
2019-03-12T11:15:42.778Z,63.80
2019-03-12T11:18:12.325Z,63.80
2019-03-12T11:20:41.825Z,60.80
2019-03-12T11:23:11.358Z,60.80
2019-03-12T11:25:40.840Z,62.50
2019-03-12T11:28:10.371Z,60.70
2019-03-12T11:30:39.975Z,61.10
2019-03-12T11:33:09.663Z,61.60
2019-03-12T11:35:40.463Z,62.60
2019-03-12T11:38:10.062Z,61.00
2019-03-12T11:40:39.513Z,61.90
2019-03-12T11:43:09.440Z,62.20
2019-03-12T11:45:40.700Z,63.00
2019-03-12T11:48:11.817Z,62.50
2019-03-12T11:50:41.350Z,62.50
2019-03-12T11:53:10.858Z,62.10
2019-03-12T11:55:40.305Z,60.20
2019-03-12T11:58:09.908Z,61.50
2019-03-12T12:00:41.035Z,61.10
2019-03-12T12:03:10.889Z,61.70
2019-03-12T12:05:40.277Z,62.40
2019-03-12T12:08:09.777Z,63.40
2019-03-12T12:10:40.713Z,63.30
2019-03-12T12:13:10.632Z,62.50
2019-03-12T12:15:40.036Z,61.00
2019-03-12T12:18:09.526Z,62.30
2019-03-12T12:20:38.917Z,61.80
2019-03-12T12:23:08.422Z,61.70
2019-03-12T12:25:37.912Z,62.60
2019-03-12T12:28:07.331Z,61.50
2019-03-12T12:30:36.943Z,61.90
2019-03-12T12:33:06.444Z,60.90
2019-03-12T12:35:37.548Z,61.70
2019-03-12T12:38:07.112Z,61.10
2019-03-12T12:40:36.577Z,60.10
2019-03-12T12:43:06.111Z,60.40
2019-03-12T12:45:38.074Z,59.80
2019-03-12T12:48:07.946Z,59.70
2019-03-12T12:50:37.572Z,59.00
2019-03-12T12:53:07.202Z,59.70
2019-03-12T12:55:36.795Z,59.80
2019-03-12T12:58:07.117Z,59.80
2019-03-12T13:00:38.454Z,58.80
2019-03-12T13:03:08.294Z,59.40
2019-03-12T13:05:37.867Z,60.60
2019-03-12T13:08:08.449Z,60.20
2019-03-12T13:10:38.960Z,58.20
2019-03-12T13:13:08.498Z,58.20
2019-03-12T13:15:40.514Z,59.80
2019-03-12T13:18:10.024Z,59.40
2019-03-12T13:20:39.425Z,58.20
2019-03-12T13:23:09.001Z,58.50
2019-03-12T13:25:38.497Z,59.50
2019-03-12T13:28:09.172Z,59.80
2019-03-12T13:30:40.216Z,58.90
2019-03-12T13:33:09.736Z,57.90
2019-03-12T13:35:40.698Z,58.10
2019-03-12T13:38:10.222Z,57.40
2019-03-12T13:40:41.513Z,58.40
2019-03-12T13:43:11.315Z,58.30
2019-03-12T13:45:40.796Z,58.90
2019-03-12T13:48:10.306Z,59.90
2019-03-12T13:50:39.730Z,60.40
2019-03-12T13:53:09.463Z,59.60
2019-03-12T13:55:38.945Z,60.20
2019-03-12T13:58:08.431Z,59.40
2019-03-12T14:00:37.850Z,60.30
2019-03-12T14:03:07.248Z,59.70
2019-03-12T14:05:36.696Z,59.80
2019-03-12T14:08:06.166Z,58.60
2019-03-12T14:10:35.640Z,58.60
2019-03-12T14:13:05.453Z,58.90
2019-03-12T14:15:39.693Z,59.50
2019-03-12T14:18:09.172Z,59.50
2019-03-12T14:20:50.505Z,59.20
2019-03-12T14:23:35.072Z,59.30
2019-03-12T14:26:05.992Z,60.30
2019-03-12T14:28:35.762Z,59.80
2019-03-12T14:31:05.741Z,59.70
2019-03-12T14:33:35.446Z,60.20
2019-03-12T14:36:05.093Z,59.60
2019-03-12T14:38:34.684Z,61.00
2019-03-12T14:41:04.582Z,59.70
2019-03-12T14:43:34.149Z,60.60
2019-03-12T14:46:04.186Z,61.20
2019-03-12T14:48:41.999Z,60.50
2019-03-12T14:51:33.888Z,60.90
2019-03-12T14:54:09.207Z,61.60
2019-03-12T14:56:40.222Z,60.80
2019-03-12T14:59:10.093Z,60.40
2019-03-12T15:01:39.649Z,59.60
2019-03-12T15:04:09.081Z,60.00
2019-03-12T15:06:38.548Z,59.90
2019-03-12T15:09:09.821Z,60.10
2019-03-12T15:11:41.667Z,60.30
2019-03-12T15:14:11.078Z,61.30
2019-03-12T15:16:41.669Z,61.10
2019-03-12T15:19:11.231Z,60.00
2019-03-12T15:21:40.633Z,60.90
2019-03-12T15:24:10.457Z,61.80
2019-03-12T15:26:40.078Z,62.40
2019-03-12T15:29:09.593Z,62.90
2019-03-12T15:31:39.181Z,62.90
2019-03-12T15:34:08.628Z,63.10
2019-03-12T15:36:38.094Z,63.30
2019-03-12T15:39:08.488Z,62.90
2019-03-12T15:41:39.491Z,64.50
2019-03-12T15:44:08.964Z,65.10
2019-03-12T15:46:38.400Z,64.60
2019-03-12T15:49:07.803Z,66.10
2019-03-12T15:51:37.175Z,65.80
2019-03-12T15:54:06.593Z,66.20
2019-03-12T15:56:36.044Z,66.10
2019-03-12T15:59:05.725Z,66.70
2019-03-12T16:01:35.220Z,66.40
2019-03-12T16:04:04.660Z,66.50
2019-03-12T16:06:34.070Z,66.20
2019-03-12T16:09:05.059Z,67.10
2019-03-12T16:11:36.222Z,67.90
2019-03-12T16:14:05.723Z,69.00
2019-03-12T16:16:35.340Z,70.00
2019-03-12T16:19:04.880Z,70.20
2019-03-12T16:21:34.476Z,70.50
2019-03-12T16:24:04.298Z,71.80
2019-03-12T16:26:33.653Z,72.00
2019-03-12T16:29:03.082Z,71.30
2019-03-12T16:31:32.531Z,71.50
2019-03-12T16:34:01.908Z,72.20
2019-03-12T16:36:31.409Z,72.40
2019-03-12T16:39:00.905Z,72.40
2019-03-12T16:41:33.516Z,72.00
2019-03-12T16:44:03.161Z,72.60
2019-03-12T16:46:32.551Z,74.70
2019-03-12T16:49:02.009Z,75.60
2019-03-12T16:51:31.508Z,76.30
2019-03-12T16:54:04.959Z,77.00
2019-03-12T16:56:44.424Z,77.60
2019-03-12T16:59:03.965Z,77.10
2019-03-12T17:01:33.411Z,76.40
2019-03-12T17:04:02.832Z,75.90
2019-03-12T17:06:32.216Z,75.00
2019-03-12T17:09:01.818Z,74.10
2019-03-12T17:11:33.481Z,74.10
2019-03-12T17:14:02.950Z,73.50
2019-03-12T17:16:33.735Z,73.40
2019-03-12T17:19:03.187Z,72.70
2019-03-12T17:21:45.764Z,73.00
2019-03-12T17:24:15.523Z,73.20
2019-03-12T17:26:45.012Z,74.80
2019-03-12T17:29:16.974Z,79.20
2019-03-12T17:31:47.236Z,81.70
2019-03-12T17:34:17.239Z,84.20
2019-03-12T17:36:46.749Z,82.80
2019-03-12T17:39:16.224Z,85.40
2019-03-12T17:41:45.820Z,88.40
2019-03-12T17:44:15.253Z,89.30
2019-03-12T17:46:44.706Z,91.60
2019-03-12T17:49:14.195Z,92.40
2019-03-12T17:51:43.738Z,92.70
2019-03-12T17:54:13.179Z,92.50
2019-03-12T17:56:55.119Z,92.90
2019-03-12T17:59:24.740Z,93.10
2019-03-12T18:01:54.247Z,92.30
2019-03-12T18:04:23.897Z,94.20
2019-03-12T18:06:53.372Z,93.30
2019-03-12T18:09:22.897Z,93.60
2019-03-12T18:11:53.753Z,93.80
2019-03-12T18:14:24.422Z,94.10
2019-03-12T18:16:53.948Z,94.70
2019-03-12T18:19:23.506Z,94.80
2019-03-12T18:21:52.990Z,94.90
2019-03-12T18:24:22.629Z,94.30
2019-03-12T18:26:52.070Z,94.70
2019-03-12T18:29:21.574Z,94.80
2019-03-12T18:31:51.090Z,95.20
2019-03-12T18:34:20.962Z,95.50
2019-03-12T18:36:50.534Z,95.60
2019-03-12T18:39:20.038Z,95.60
2019-03-12T18:41:49.430Z,95.50
2019-03-12T18:44:19.072Z,96.00
2019-03-12T18:46:48.474Z,95.90
2019-03-12T18:49:17.940Z,96.10
2019-03-12T18:51:47.312Z,96.10
2019-03-12T18:54:16.842Z,95.00
2019-03-12T18:56:46.282Z,99.90
2019-03-12T18:59:15.704Z,99.90
2019-03-12T19:01:45.215Z,99.90
2019-03-12T19:04:14.755Z,99.90
2019-03-12T19:06:44.289Z,99.90
2019-03-12T19:09:13.907Z,99.90
2019-03-12T19:11:43.393Z,99.90
2019-03-12T19:14:12.914Z,99.90
2019-03-12T19:16:42.588Z,99.90
2019-03-12T19:19:12.112Z,99.90
2019-03-12T19:21:41.672Z,99.90
2019-03-12T19:24:12.403Z,99.90
2019-03-12T19:26:43.637Z,99.90
2019-03-12T19:29:13.152Z,99.90
2019-03-12T19:31:44.823Z,99.90
2019-03-12T19:34:15.123Z,99.90
2019-03-12T19:36:44.730Z,99.90
2019-03-12T19:39:16.447Z,99.90
2019-03-12T19:41:47.451Z,99.90
2019-03-12T19:44:16.845Z,99.90
2019-03-12T19:46:46.349Z,99.90
2019-03-12T19:49:15.951Z,99.90
2019-03-12T19:51:45.508Z,99.90
2019-03-12T19:54:15.222Z,99.80
2019-03-12T19:56:44.727Z,99.90
2019-03-12T19:59:14.394Z,99.90
2019-03-12T20:01:45.564Z,99.80
2019-03-12T20:04:14.976Z,99.60
2019-03-12T20:06:44.588Z,99.80
2019-03-12T20:09:17.784Z,99.70
2019-03-12T20:11:59.502Z,99.70
2019-03-12T20:14:34.751Z,99.60
2019-03-12T20:17:24.113Z,99.50
2019-03-12T20:20:28.577Z,99.80
2019-03-12T20:23:18.448Z,99.40
2019-03-12T20:25:59.954Z,99.60
2019-03-12T20:29:03.061Z,99.70
2019-03-12T20:31:38.625Z,99.90
2019-03-12T20:34:22.641Z,99.80
2019-03-12T20:37:01.182Z,99.70
2019-03-12T20:40:09.027Z,99.60
2019-03-12T20:42:59.525Z,99.80
2019-03-12T20:45:47.095Z,99.90
2019-03-12T20:48:49.380Z,99.90
2019-03-12T20:51:52.048Z,99.90
2019-03-12T20:54:51.658Z,99.90
2019-03-12T20:57:46.532Z,99.70
2019-03-12T21:00:38.184Z,99.30
2019-03-12T21:03:40.775Z,99.60
2019-03-12T21:06:25.508Z,99.50
2019-03-12T21:09:14.416Z,99.40
2019-03-12T21:12:02.242Z,99.40
2019-03-12T21:14:46.795Z,99.40
2019-03-12T21:17:37.287Z,99.30
2019-03-12T21:20:44.918Z,99.20
2019-03-12T21:23:26.344Z,98.80
2019-03-12T21:25:58.862Z,98.70
2019-03-12T21:28:37.095Z,98.70
2019-03-12T21:31:07.188Z,99.00
2019-03-12T21:33:36.695Z,98.90
2019-03-12T21:36:08.280Z,99.10
2019-03-12T21:38:37.799Z,99.20
2019-03-12T21:41:07.549Z,99.30
2019-03-12T21:43:37.603Z,99.20
2019-03-12T21:46:07.454Z,99.30
2019-03-12T21:48:39.832Z,98.80
2019-03-12T21:51:09.535Z,98.10
2019-03-12T21:53:39.193Z,98.30
2019-03-12T21:56:08.852Z,97.80
2019-03-12T21:58:39.391Z,97.70
2019-03-12T22:01:09.532Z,97.60
2019-03-12T22:03:39.104Z,97.60
2019-03-12T22:06:08.547Z,97.70
2019-03-12T22:08:38.045Z,97.70
2019-03-12T22:11:07.501Z,97.40
2019-03-12T22:13:37.039Z,97.50
2019-03-12T22:16:08.001Z,97.70
2019-03-12T22:18:37.658Z,97.40
2019-03-12T22:21:07.087Z,97.30
2019-03-12T22:23:44.284Z,97.10
2019-03-12T22:26:13.886Z,97.00
2019-03-12T22:28:43.310Z,97.20
2019-03-12T22:31:12.935Z,97.30
2019-03-12T22:33:42.591Z,97.20
2019-03-12T22:36:12.091Z,97.30
2019-03-12T22:38:41.759Z,97.30
2019-03-12T22:41:11.445Z,97.40
2019-03-12T22:43:40.931Z,97.50
2019-03-12T22:46:10.435Z,97.70
2019-03-12T22:48:39.859Z,97.70
2019-03-12T22:51:09.921Z,97.80
2019-03-12T22:53:39.505Z,97.70
2019-03-12T22:56:10.228Z,97.70
2019-03-12T22:58:39.665Z,97.70
2019-03-12T23:01:26.986Z,97.60
2019-03-12T23:04:14.550Z,97.70
2019-03-12T23:07:02.482Z,97.70
2019-03-12T23:09:43.188Z,97.80
2019-03-12T23:12:16.862Z,98.00
2019-03-12T23:14:47.436Z,98.00
2019-03-12T23:17:18.606Z,98.20
2019-03-12T23:19:48.288Z,98.40
2019-03-12T23:22:18.030Z,98.40
2019-03-12T23:24:47.574Z,98.30
2019-03-12T23:27:17.920Z,98.20
2019-03-12T23:29:47.449Z,98.10
2019-03-12T23:32:18.885Z,98.00
2019-03-12T23:34:48.460Z,98.00
2019-03-12T23:37:18.073Z,98.10
2019-03-12T23:39:47.599Z,98.00
2019-03-12T23:42:17.297Z,98.20
2019-03-12T23:44:46.773Z,98.00
2019-03-12T23:47:16.537Z,98.00
2019-03-12T23:49:46.052Z,97.90
2019-03-12T23:52:15.574Z,97.90
2019-03-12T23:54:45.233Z,97.90
2019-03-12T23:57:15.032Z,97.80
2019-03-12T23:59:44.585Z,97.80
